Latest Coastal Weather Observations for Williamtown

IDN60701

Issued at 11:55 pm EST Saturday 20 September 2014 (issued every 10 minutes, with the page automatically refreshed every 10 minutes)

About coastal observations | Map of coastal stations | Coastal observations for NSW | Marine services | Other Formats
Station Details ID: 061078 Name: WILLIAMTOWN RAAF Lat: -32.79 Lon: 151.84 Height: 9.0 m
Data from the previous 72 hours. | See also: Recent months at Williamtown
Date/Time
EST
Temp

°C
Wind Pressure Rain
since 9am
mm
Weather Cloud Vis
km
Sea
Height
m
Swell
Dir
 
Speed
knots
Gust
knots
hPa Trend Height
m
Period
s
Dir
20/11:30pm 9.6 WNW 5 7 1027.7 - 0.0 - Partly cloudy 10 - - - -
20/11:00pm 9.9 NW 6 7 1027.7 - 0.0 - Partly cloudy 10 - - - -
20/10:30pm 9.8 NW 5 6 1027.6 - 0.0 - Partly cloudy 10 - - - -
20/10:00pm 8.9 NW 4 4 1027.4 - 0.0 - Partly cloudy - - - - -
20/09:30pm 9.1 NW 4 4 1027.4 - 0.0 - Partly cloudy 10 - - - -
20/09:00pm 8.6 CALM 0 0 1027.4 - 0.0 - Cloudy 10 - - - -
20/08:30pm 9.7 CALM 0 0 1027.1 - 0.0 - - 10 - - - -
20/08:00pm 10.8 SSE 1 4 1026.7 - 0.0 - - 10 - - - -
20/07:30pm 12.7 S 5 6 1026.4 - 0.0 - - 10 - - - -
20/07:00pm 13.7 S 6 8 1026.1 - 0.0 - - 10 - - - -
20/06:30pm 14.3 SSE 7 9 1025.5 - 0.0 - - 10 - - - -
20/06:00pm 15.1 SSE 7 12 1025.1 - 0.0 - Cloudy 10 - - - -
20/05:30pm 16.0 SSE 10 14 1024.6 - 0.0 - Partly cloudy 10 - - - -
20/05:00pm 16.7 SSE 13 16 1024.1 - 0.0 - Partly cloudy 10 - - - -
20/04:30pm 16.6 S 14 18 1023.8 - 0.0 - Partly cloudy 10 - - - -
20/04:00pm 17.7 S 15 20 1023.6 - 0.0 - Partly cloudy 10 - - - -
20/03:30pm 17.9 S 14 19 1023.1 - 0.0 - Partly cloudy 10 - - - -
20/03:00pm 17.9 SSE 14 17 1023.2 - 0.0 - - 10 - - - -
20/02:30pm 18.4 SSE 14 20 1023.1 - 0.0 - Partly cloudy 10 - - - -
20/02:00pm 18.5 S 14 19 1023.2 - 0.0 - - 10 - - - -
20/01:30pm 19.1 SSE 13 17 1023.2 - 0.0 - - 10 - - - -
20/01:00pm 18.8 S 14 17 1023.3 - 0.0 - - 10 - - - -
20/12:30pm 19.4 SSE 13 16 1023.4 - 0.0 - - 10 - - - -
20/12:00pm 18.7 SSE 13 16 1023.6 - 0.0 - - 10 - - - -
20/11:30am 18.4 SSE 10 15 1023.8 - 0.0 - - 10 - - - -
20/11:00am 18.8 WSW 6 11 1023.9 - 0.0 - - 10 - - - -
20/10:30am 18.0 WSW 3 6 1024.1 - 0.0 - - 10 - - - -
20/10:00am 16.9 W 5 7 1024.3 - 0.0 - - 10 - - - -
20/09:30am 15.7 WNW 7 10 1024.4 - 0.0 - - 10 - - - -
20/09:00am 14.5 NW 8 10 1024.4 - 0.0 - - 10 - - - -
20/08:30am 13.0 NW 9 12 1024.2 - 0.0 - - 10 - - - -
20/08:00am 11.4 NW 8 11 1023.9 - 0.0 - - 10 - - - -
20/07:30am 9.6 WNW 7 8 1023.8 - 0.0 - - 10 - - - -
20/07:00am 8.2 WNW 5 6 1023.3 - 0.0 - - 10 - - - -
20/06:30am 6.7 WNW 5 7 1022.9 - 0.0 - - 10 - - - -
20/06:00am 5.9 NW 7 8 1022.3 - 0.0 - - 10 - - - -
20/05:30am 5.3 NW 7 8 1021.9 - 0.0 - - 10 - - - -
20/05:00am 5.3 WNW 6 7 1021.4 - 0.0 - - 10 - - - -
20/04:30am 5.3 NW 5 6 1021.1 - 0.0 - - 10 - - - -
20/04:00am 5.6 NW 5 5 1020.8 - 0.0 - - 10 - - - -
20/03:30am 5.2 NW 5 6 1020.9 - 0.0 - - 10 - - - -
20/03:00am 5.0 WNW 5 6 1020.9 - 0.0 - - 10 - - - -
20/02:30am 4.7 CALM 0 5 1020.9 - 0.0 - - 10 - - - -
20/02:00am 4.4 CALM 0 0 1021.0 - 0.0 - - 10 - - - -
20/01:30am 4.6 CALM 0 0 1021.3 - 0.0 - - 10 - - - -
20/01:00am 5.4 CALM 0 0 1021.3 - 0.0 - - 10 - - - -
20/12:30am 5.5 CALM 0 0 1021.4 - 0.0 - - 10 - - - -
20/12:00am 5.2 NE 0 0 1021.6 - 0.0 - - 10 - - - -
 
Date/Time
EST
Temp

°C
Wind Pressure Rain
since 9am
mm
Weather Cloud Vis
km
Sea
Height
m
Swell
Dir
 
Speed
knots
Gust
knots
hPa Trend Height
m
Period
s
Dir
19/11:30pm 5.8 CALM 0 0 1021.8 - 0.0 - - 10 - - - -
19/11:00pm 6.4 CALM 0 0 1021.9 - 0.0 - - 10 - - - -
19/10:30pm 6.6 CALM 0 0 1021.9 - 0.0 - - 10 - - - -
19/10:00pm 7.0 CALM 0 0 1021.8 - 0.0 - - 10 - - - -
19/09:30pm 7.6 CALM 0 0 1021.5 - 0.0 - - 10 - - - -
19/09:00pm 7.6 CALM 0 0 1021.4 - 0.0 - - 10 - - - -
19/08:30pm 8.2 N 1 4 1021.2 - 0.0 - - 10 - - - -
19/08:00pm 8.9 CALM 0 0 1021.0 - 0.0 - - 10 - - - -
19/07:30pm 9.1 NNE 4 5 1020.7 - 0.0 - - 10 - - - -
19/07:00pm 11.7 NE 5 6 1020.4 - 0.0 - - - - - - -
19/06:30pm 11.9 ENE 4 5 1020.1 - 0.0 - - 10 - - - -
19/06:00pm 14.6 E 5 6 1019.9 - 0.0 - - 10 - - - -
19/05:30pm 15.5 E 6 7 1019.6 - 0.0 - - 10 - - - -
19/05:00pm 16.1 ESE 7 8 1019.4 - 0.0 - - 10 - - - -
19/04:30pm 16.7 E 6 8 1019.2 - 0.0 - - 10 - - - -
19/04:00pm 16.9 ESE 6 8 1019.2 - 0.0 - - 10 - - - -
19/03:30pm 17.0 SE 7 9 1019.2 - 0.0 - - 10 - - - -
19/03:00pm 16.8 SE 8 10 1019.3 - 0.0 - - 10 - - - -
19/02:30pm 17.2 SSE 8 11 1019.4 - 0.0 - - 10 - - - -
19/02:00pm 17.5 SSE 9 11 1019.4 - 0.0 - - 10 - - - -
19/01:30pm 17.5 SSE 8 10 1019.5 - 0.0 - - 10 - - - -
19/01:00pm 17.5 S 9 10 1020.0 - 0.0 - - 10 - - - -
19/12:30pm 17.6 S 6 10 1020.2 - 0.0 - - 10 - - - -
19/12:00pm 17.1 SE 9 14 1020.7 - 0.0 - - 10 - - - -
19/11:30am 17.3 W 6 9 1021.0 - 0.0 - - 10 - - - -
19/11:00am 17.6 NW 6 10 1021.6 - 0.0 - - 10 - - - -
19/10:30am 16.6 WSW 6 10 1022.1 - 0.0 - - 10 - - - -
19/10:00am 15.7 NW 7 10 1022.4 - 0.0 - - 10 - - - -
19/09:30am 15.5 W 7 11 1022.6 - 0.0 - - 10 - - - -
19/09:00am 15.0 WNW 9 12 1022.7 - 0.0 - - 10 - - - -
19/08:30am 13.8 WNW 9 13 1022.6 - 0.0 - - 10 - - - -
19/08:00am 12.7 WNW 10 13 1022.6 - 0.0 - - 10 - - - -
19/07:30am 11.1 WNW 9 11 1022.3 - 0.0 - - 10 - - - -
19/07:00am 9.3 NW 8 10 1022.3 - 0.0 - - 10 - - - -
19/06:30am 7.9 NW 8 9 1022.0 - 0.0 - - 10 - - - -
19/06:00am 7.0 NW 9 10 1021.9 - 0.0 - - 10 - - - -
19/05:30am 6.6 NW 7 8 1021.5 - 0.0 - - 10 - - - -
19/05:00am 6.6 NW 7 8 1021.2 - 0.0 - - 10 - - - -
19/04:30am 6.7 NW 7 8 1020.9 - 0.0 - - 10 - - - -
19/04:00am 6.6 WNW 6 7 1020.6 - 0.0 - - 10 - - - -
19/03:30am 6.8 NW 6 7 1020.5 - 0.0 - - 10 - - - -
19/03:00am 7.2 CALM 0 3 1020.6 - 0.0 - - 10 - - - -
19/02:30am 7.8 NW 5 7 1020.5 - 0.0 - - 10 - - - -
19/02:00am 8.2 NW 7 9 1020.8 - 0.0 - - 10 - - - -
19/01:30am 8.4 NW 7 8 1020.9 - 0.0 - - 10 - - - -
19/01:00am 8.5 NW 7 7 1021.0 - 0.0 - Partly cloudy 10 - - - -
19/12:30am 8.6 NW 7 7 1021.1 - 0.0 - Partly cloudy 10 - - - -
19/12:00am 8.8 NW 6 7 1021.4 - 0.0 - Cloudy 10 - - - -
 
Date/Time
EST
Temp

°C
Wind Pressure Rain
since 9am
mm
Weather Cloud Vis
km
Sea
Height
m
Swell
Dir
 
Speed
knots
Gust
knots
hPa Trend Height
m
Period
s
Dir
18/11:30pm 8.7 NW 7 7 1021.5 - 0.0 - Partly cloudy 10 - - - -
18/11:00pm 8.7 NW 7 7 1021.5 - 0.0 - Partly cloudy 10 - - - -
18/10:30pm 9.0 NW 6 6 1021.5 - 0.0 - - 10 - - - -
18/10:00pm 9.5 NW 6 7 1021.5 - 0.0 - Partly cloudy 10 - - - -
18/09:30pm 9.7 NW 6 7 1021.5 - 0.0 - Partly cloudy 10 - - - -
18/09:00pm 9.8 NW 6 7 1021.3 - 0.0 - Cloudy 10 - - - -
18/08:30pm 9.6 WNW 5 5 1020.9 - 0.0 - - 10 - - - -
18/08:00pm 10.5 WSW 2 5 1020.7 - 0.0 - - 10 - - - -
18/07:30pm 11.7 S 2 4 1020.1 - 0.0 - - 10 - - - -
18/07:00pm 12.4 SSE 5 8 1019.7 - 0.0 - - 10 - - - -
18/06:31pm 13.4 S 7 9 1019.3 - 0.0 - - 10 - - - -
18/06:30pm 13.5 S 7 9 1019.3 - 0.0 - - 10 - - - -
18/06:00pm 13.5 SE 7 9 1018.9 - 0.0 - - 10 - - - -
18/05:30pm 14.6 SSE 9 10 1018.4 - 0.0 - - 10 - - - -
18/05:00pm 15.8 SSE 12 16 1017.9 - 0.0 - - 10 - - - -
18/04:30pm 16.4 SSE 13 18 1017.5 - 0.0 - - 10 - - - -
18/04:00pm 16.9 SSE 14 17 1017.1 - 0.0 - - 10 - - - -
18/03:30pm 17.4 SSE 13 16 1016.9 - 0.0 - Mostly clear 10 - - - -
18/03:00pm 17.3 SSE 14 18 1017.0 R 0.0 Fine Partly cloudy 40 - - - -
18/02:30pm 17.4 SSE 14 18 1017.0 - 0.0 - Mostly clear 10 - - - -
18/02:00pm 17.6 SSE 13 17 1017.0 - 0.0 - Mostly clear 10 - - - -
18/01:30pm 18.5 SSE 15 18 1017.3 - 0.0 - Mostly clear 10 - - - -
18/01:00pm 18.1 SSE 16 19 1017.4 - 0.0 - Mostly clear 10 - - - -
18/12:30pm 18.2 S 15 18 1017.3 - 0.0 - Mostly clear 10 - - - -
18/12:00pm 19.5 SSW 9 18 1017.7 R 0.0 Fine Mostly clear 40 - - - -
18/11:30am 18.8 W 7 10 1017.9 - 0.0 - Mostly clear 10 - - - -
18/11:00am 18.8 W 13 17 1018.1 - 0.0 - Mostly clear 10 - - - -
18/10:30am 17.6 W 15 22 1018.4 - 0.0 - Mostly clear 10 - - - -
18/10:00am 17.7 W 14 18 1018.5 - 0.0 - Mostly clear 10 - - - -
18/09:30am 17.1 W 16 21 1018.7 - 0.0 - Mostly clear 10 - - - -
18/09:00am 16.0 W 15 21 1018.9 R 0.0 Fine Mostly clear 40 - - - -
18/08:30am 15.4 WNW 17 21 1018.8 - 0.0 - Mostly clear 10 - - - -
18/08:00am 14.3 WNW 16 22 1018.5 - 0.0 - Mostly clear 10 - - - -
18/07:30am 13.1 WNW 11 16 1018.4 - 0.0 - Mostly clear 10 - - - -
18/07:00am 11.5 WNW 9 11 1018.3 - 0.0 - Mostly clear 10 - - - -
18/06:30am 9.8 WNW 9 13 1018.0 - 0.0 - Mostly clear 10 - - - -
18/06:00am 9.4 WNW 9 12 1017.6 R 0.0 Fine Mostly clear 25 - - - -
18/05:30am 8.8 WNW 9 11 1017.3 - 0.0 - - 10 - - - -
18/05:00am 8.5 WNW 8 10 1017.1 - 0.0 - - 10 - - - -
18/04:30am 8.9 NW 7 8 1016.7 - 0.0 - - 10 - - - -
18/04:00am 10.1 NW 8 9 1016.5 - 0.0 - - 10 - - - -
18/03:30am 10.5 NW 7 9 1016.1 - 0.0 - - 10 - - - -
18/03:00am 9.7 NW 9 10 1016.2 - 0.0 - - 10 - - - -
18/02:30am 9.9 NW 8 9 1015.9 - 0.0 - - 10 - - - -
18/02:00am 9.6 WNW 8 9 1015.8 - 0.0 - - 10 - - - -
18/01:30am 9.8 WNW 7 7 1015.9 - 0.0 - - 10 - - - -
18/01:00am 10.1 WNW 7 8 1015.8 - 0.0 - - 10 - - - -
18/12:30am 10.9 WNW 7 8 1015.8 - 0.0 - - 10 - - - -
18/12:00am 11.3 WNW 8 9 1015.8 - 0.0 - - 10 - - - -

Other Formats:

Comma delimited format used in spreadsheet applications
http://www.bom.gov.au/fwo/IDN60701/IDN60701.94776.axf

JavaScript Object Notation format (JSON) in row-major order
http://www.bom.gov.au/fwo/IDN60701/IDN60701.94776.json